VNKT/KTM METAR and TAF weather

Enter ICAO airport designator
Station Type Date Time Source
VNKT METAR 2020/07/14 23:50 UTC NOAA

VNKT 142350Z 21003KT 6000 FEW010 21/20 Q1012 NOSIG


Station Type Date Time Source
VNKT Decoded METAR 2020/07/14 23:50 UTC NOAA

Kathmandu Airport, Nepal (VNKT) 27-42N 085-22E 1337M
Jul 14, 2020 - 07:50 PM EDT / 2020.07.14 2350 UTC
Wind: from the SSW (210 degrees) at 3 MPH (3 KT):0
Visibility: 3 mile(s):0
Sky conditions: mostly clear
Temperature: 69 F (21 C)
Dew Point: 68 F (20 C)
Relative Humidity: 94%
Pressure (altimeter): 29.88 in. Hg (1012 hPa)
ob: VNKT 142350Z 21003KT 6000 FEW010 21/20 Q1012 NOSIG
cycle: 0

Station Type Date Time Source
VNKT TAF 2020/07/14 18:48 UTC NOAA

TAF VNKT 141700Z 1418/1518 21004KT 7000 FEW010 SCT030 BKN100
BECMG 1500/1502 VRB02KT 5000 -RA/BR FEW008 SCT025 BKN100
BECMG 1504/1505 21004KT 6000 FEW010 SCT030 BKN100
BECMG 1507/1509 24005KT 7000 FEW015 SCT025 BKN100 PROB40 1508/1513 VRB09KT 4000 RA/-TSRA FEW025CB
BECMG 1514/1515 22004KT 7000 FEW015 SCT025 BKN100 PROB40 1515/1518 5000 -TSRA FEW025CB

Example: see airport list